Time;durP1;ratioP1;P1;durP2;ratioP2;P2;SDS_P1;SDS_P2;PMS_P1;PMS_P2;Temp;Humidity;BMP_temperature;BMP_pressure;BME280_temperature;BME280_humidity;BME280_pressure;Samples;Min_cycle;Max_cycle;Signal;HPM_P1;HPM_P2
2022/03/30 00:01:31;;;;;;;33.27;18.23;;;6.00;1.00;;;;;;4967492;28;20211;-66
2022/03/30 00:04:01;;;;;;;31.97;16.90;;;6.00;1.00;;;;;;4972469;28;20206;-66
2022/03/30 00:06:28;;;;;;;30.43;16.47;;;6.00;1.00;;;;;;4981232;28;20202;-66
2022/03/30 00:08:57;;;;;;;31.43;16.77;;;6.00;1.00;;;;;;4974557;28;20257;-66
2022/03/30 00:11:24;;;;;;;29.10;16.23;;;5.90;1.00;;;;;;4976595;28;20217;-65
2022/03/30 00:13:53;;;;;;;30.30;16.63;;;5.90;1.00;;;;;;4985808;28;20628;-66
2022/03/30 00:16:20;;;;;;;24.50;14.73;;;5.90;1.00;;;;;;4984928;28;20225;-65
2022/03/30 00:18:47;;;;;;;29.43;16.43;;;6.00;1.00;;;;;;4985870;28;20883;-66
2022/03/30 00:21:14;;;;;;;30.03;16.70;;;6.00;1.00;;;;;;4982609;28;20228;-66
2022/03/30 00:23:41;;;;;;;30.13;15.37;;;5.90;1.00;;;;;;4957001;28;20189;-66
2022/03/30 00:26:08;;;;;;;29.10;14.90;;;5.90;1.00;;;;;;4965657;28;20206;-66
2022/03/30 00:28:35;;;;;;;32.77;16.37;;;5.80;1.00;;;;;;4972210;28;20245;-65
2022/03/30 00:31:02;;;;;;;33.20;16.23;;;5.80;1.00;;;;;;4964628;28;20669;-66
2022/03/30 00:33:29;;;;;;;28.27;16.13;;;5.90;1.00;;;;;;4948891;28;20312;-66
2022/03/30 00:35:58;;;;;;;37.33;17.77;;;5.90;1.00;;;;;;4964288;28;20593;-66
2022/03/30 00:38:30;;;;;;;30.50;15.30;;;5.80;1.00;;;;;;4965099;28;20320;-67
2022/03/30 00:40:57;;;;;;;30.40;15.57;;;5.80;1.00;;;;;;4964869;28;20246;-66
2022/03/30 00:43:24;;;;;;;29.93;16.47;;;5.80;1.00;;;;;;4967092;28;20221;-67
2022/03/30 00:45:55;;;;;;;35.43;16.70;;;5.80;1.00;;;;;;4970465;28;20621;-66
2022/03/30 00:48:22;;;;;;;31.43;16.43;;;5.80;1.00;;;;;;4963425;28;20862;-66
2022/03/30 00:50:49;;;;;;;31.87;15.80;;;5.80;1.00;;;;;;4968345;28;20225;-67
2022/03/30 00:53:16;;;;;;;25.90;14.83;;;5.80;1.00;;;;;;4963639;28;20214;-66
2022/03/30 00:55:45;;;;;;;28.63;16.00;;;5.80;1.00;;;;;;4981817;28;20625;-66
2022/03/30 00:58:14;;;;;;;30.67;16.37;;;5.80;1.00;;;;;;4943436;28;20208;-66
2022/03/30 01:00:41;;;;;;;26.60;15.67;;;5.80;1.00;;;;;;4970399;28;20720;-66
2022/03/30 01:03:08;;;;;;;29.50;14.73;;;5.70;1.00;;;;;;4978285;28;20209;-66
2022/03/30 01:05:36;;;;;;;25.43;15.30;;;5.70;1.00;;;;;;4980847;28;20267;-67
2022/03/30 01:08:03;;;;;;;23.20;15.03;;;5.70;1.00;;;;;;4970497;28;20193;-67
2022/03/30 01:10:32;;;;;;;25.00;15.17;;;5.60;1.00;;;;;;4971022;28;20205;-67
2022/03/30 01:13:03;;;;;;;30.00;15.33;;;5.60;1.00;;;;;;4963131;28;20211;-67
2022/03/30 01:15:31;;;;;;;33.00;15.87;;;5.70;1.00;;;;;;4962925;28;20229;-67
2022/03/30 01:17:58;;;;;;;26.33;15.30;;;5.70;1.00;;;;;;4962120;28;20304;-66
2022/03/30 01:20:26;;;;;;;33.47;17.07;;;5.80;1.00;;;;;;4978393;28;20206;-67
2022/03/30 01:23:01;;;;;;;25.47;15.47;;;5.80;1.00;;;;;;4980866;28;20225;-66
2022/03/30 01:25:31;;;;;;;31.13;16.97;;;5.80;1.00;;;;;;4965382;28;20198;-66
2022/03/30 01:27:59;;;;;;;34.93;17.13;;;5.70;1.00;;;;;;4979307;28;20225;-66
2022/03/30 01:33:13;;;;;;;29.70;16.50;;;5.60;1.00;;;;;;4962947;28;20197;-66
2022/03/30 01:35:41;;;;;;;31.50;16.77;;;5.50;1.00;;;;;;4979672;28;20661;-66
2022/03/30 01:38:09;;;;;;;42.87;19.07;;;5.50;1.00;;;;;;4950455;28;20201;-66
2022/03/30 01:40:36;;;;;;;31.43;18.37;;;5.40;1.00;;;;;;4979796;28;20296;-66
2022/03/30 01:43:03;;;;;;;31.53;18.30;;;5.40;1.00;;;;;;4963108;28;20222;-66
2022/03/30 01:45:33;;;;;;;31.20;17.17;;;5.30;1.00;;;;;;4967808;28;20200;-66
2022/03/30 01:48:01;;;;;;;34.87;17.03;;;5.30;1.00;;;;;;4980184;28;20213;-66
2022/03/30 01:50:31;;;;;;;32.70;16.43;;;5.20;1.00;;;;;;4977768;28;20284;-65
2022/03/30 01:52:59;;;;;;;33.97;17.80;;;5.20;1.00;;;;;;4948346;28;20297;-65
2022/03/30 01:55:27;;;;;;;31.83;17.00;;;5.10;1.00;;;;;;4979854;28;20226;-65
2022/03/30 01:57:54;;;;;;;37.23;17.57;;;5.10;1.00;;;;;;4980984;28;20716;-64
2022/03/30 02:00:24;;;;;;;35.20;17.73;;;5.10;1.00;;;;;;4965303;28;20308;-65
2022/03/30 02:02:51;;;;;;;34.73;17.30;;;5.10;1.00;;;;;;4980462;28;20213;-65
2022/03/30 02:05:23;;;;;;;34.20;17.20;;;5.10;1.00;;;;;;4961989;28;22301;-65
2022/03/30 02:07:50;;;;;;;34.10;16.60;;;5.20;1.00;;;;;;4979725;28;20748;-64
2022/03/30 02:10:17;;;;;;;28.17;16.70;;;5.10;1.00;;;;;;4980672;28;20297;-64
2022/03/30 02:12:44;;;;;;;31.10;17.60;;;5.10;1.00;;;;;;4980773;28;20198;-64
2022/03/30 02:15:12;;;;;;;33.40;17.33;;;5.20;1.00;;;;;;4971495;28;20210;-64
2022/03/30 02:17:40;;;;;;;30.03;16.73;;;5.10;1.00;;;;;;4946681;28;20269;-66
2022/03/30 02:20:08;;;;;;;39.10;17.67;;;5.00;1.00;;;;;;4979391;28;20217;-64
2022/03/30 02:22:38;;;;;;;29.17;16.27;;;5.00;1.00;;;;;;4969468;28;20277;-65
2022/03/30 02:25:06;;;;;;;31.07;17.37;;;4.90;1.00;;;;;;4982483;28;20202;-64
2022/03/30 02:27:33;;;;;;;32.23;17.07;;;4.90;1.00;;;;;;4984724;28;20289;-64
2022/03/30 02:30:00;;;;;;;34.20;17.93;;;4.80;1.00;;;;;;4966863;28;20260;-65
2022/03/30 02:32:27;;;;;;;35.37;17.47;;;4.80;1.00;;;;;;4973390;28;21154;-64
2022/03/30 02:34:54;;;;;;;32.77;17.27;;;4.70;1.00;;;;;;4967286;28;20708;-64
2022/03/30 02:37:24;;;;;;;34.93;19.53;;;4.70;1.00;;;;;;4981513;28;20193;-67
2022/03/30 02:39:50;;;;;;;35.57;19.20;;;4.60;7.40;;;;;;4958119;28;20703;-65
2022/03/30 02:42:17;;;;;;;32.97;17.40;;;4.60;19.30;;;;;;4973880;28;20244;-66
2022/03/30 02:44:45;;;;;;;33.47;18.10;;;4.60;33.60;;;;;;4966314;28;20198;-66
2022/03/30 02:47:12;;;;;;;29.47;17.03;;;4.50;36.30;;;;;;4983347;28;20584;-66
2022/03/30 02:49:41;;;;;;;32.00;17.37;;;4.50;64.70;;;;;;4985188;28;20701;-65
2022/03/30 02:52:08;;;;;;;31.43;18.93;;;4.50;99.90;;;;;;4964118;28;20206;-65
2022/03/30 02:54:35;;;;;;;30.63;17.60;;;4.50;99.90;;;;;;4984253;28;20203;-66
2022/03/30 02:57:02;;;;;;;35.53;18.17;;;4.40;99.90;;;;;;4982997;28;20596;-66
2022/03/30 02:59:29;;;;;;;31.60;17.57;;;4.40;99.90;;;;;;4984777;28;20213;-66
2022/03/30 03:01:58;;;;;;;34.40;17.70;;;4.40;99.90;;;;;;4965349;28;20197;-67
2022/03/30 03:04:25;;;;;;;33.83;17.87;;;4.40;99.90;;;;;;4964173;28;20941;-68
2022/03/30 03:07:00;;;;;;;31.97;17.43;;;4.40;99.90;;;;;;4970043;28;20292;-66
2022/03/30 03:09:27;;;;;;;29.10;16.57;;;4.30;99.90;;;;;;4980317;28;20315;-66
2022/03/30 03:11:54;;;;;;;30.40;18.07;;;4.30;99.90;;;;;;4970237;28;20717;-67
2022/03/30 03:14:21;;;;;;;36.13;18.00;;;4.30;99.90;;;;;;4972182;28;20744;-66
2022/03/30 03:16:50;;;;;;;31.30;18.27;;;4.30;99.90;;;;;;4974048;28;20210;-66
2022/03/30 03:19:17;;;;;;;37.33;18.00;;;4.20;99.90;;;;;;4981828;28;20237;-66
2022/03/30 03:21:44;;;;;;;35.87;19.23;;;4.20;99.90;;;;;;4965515;28;20232;-66
2022/03/30 03:24:13;;;;;;;30.87;18.27;;;4.20;99.90;;;;;;4965647;28;20229;-66
2022/03/30 03:26:45;;;;;;;30.63;17.63;;;4.20;99.90;;;;;;4982030;28;20277;-66
2022/03/30 03:29:12;;;;;;;39.77;19.67;;;4.20;99.90;;;;;;4964503;28;20634;-66
2022/03/30 03:31:39;;;;;;;28.27;18.10;;;4.20;99.90;;;;;;4965293;28;20257;-67
2022/03/30 03:34:06;;;;;;;31.70;18.00;;;4.10;99.90;;;;;;4979869;28;20670;-65
2022/03/30 03:36:32;;;;;;;36.07;19.33;;;4.20;99.90;;;;;;4968909;28;20202;-65
2022/03/30 03:38:59;;;;;;;32.77;17.73;;;4.10;99.90;;;;;;4982375;28;20198;-65
2022/03/30 03:41:28;;;;;;;33.07;17.93;;;4.10;99.90;;;;;;4964103;28;20296;-65
2022/03/30 03:43:55;;;;;;;34.10;18.00;;;4.10;99.90;;;;;;4964423;28;20565;-65
2022/03/30 03:46:24;;;;;;;34.07;17.63;;;4.10;99.90;;;;;;4961403;28;20272;-64
2022/03/30 03:48:52;;;;;;;32.80;18.57;;;4.10;99.90;;;;;;4980406;28;20559;-65
2022/03/30 03:51:22;;;;;;;34.27;18.27;;;4.00;99.90;;;;;;4956912;28;20197;-66
2022/03/30 03:53:51;;;;;;;36.07;18.10;;;4.00;99.90;;;;;;4968513;28;20205;-66
2022/03/30 03:56:18;;;;;;;33.70;19.30;;;4.00;99.90;;;;;;4962462;28;20704;-66
2022/03/30 03:58:46;;;;;;;34.77;18.53;;;3.90;99.90;;;;;;4971471;28;20673;-66
2022/03/30 04:01:16;;;;;;;31.83;18.40;;;3.80;99.90;;;;;;4983733;28;20194;-66
2022/03/30 04:03:43;;;;;;;39.00;18.50;;;3.90;99.90;;;;;;4982869;28;20213;-66
2022/03/30 04:06:10;;;;;;;32.13;18.80;;;3.80;99.90;;;;;;4973474;28;20202;-66
2022/03/30 04:08:39;;;;;;;31.80;18.00;;;3.80;99.90;;;;;;4984105;28;20224;-66
2022/03/30 04:11:06;;;;;;;32.93;18.23;;;3.80;99.90;;;;;;4965426;28;20205;-67
2022/03/30 04:13:36;;;;;;;35.90;19.30;;;3.70;99.90;;;;;;4965171;28;20289;-65
2022/03/30 04:16:04;;;;;;;36.13;19.17;;;3.70;99.90;;;;;;4965845;28;20297;-66
2022/03/30 04:18:31;;;;;;;35.43;19.80;;;3.70;1.00;;;;;;4980419;28;20211;-66
2022/03/30 04:20:58;;;;;;;35.30;19.67;;;3.60;1.00;;;;;;4962284;28;20206;-67
2022/03/30 04:23:25;;;;;;;32.83;17.83;;;3.50;1.00;;;;;;4979554;28;20779;-66
2022/03/30 04:25:52;;;;;;;35.47;17.70;;;3.50;1.00;;;;;;4950733;28;20236;-65
2022/03/30 04:28:21;;;;;;;35.20;18.13;;;3.40;1.00;;;;;;4965738;28;20230;-66
2022/03/30 04:30:48;;;;;;;34.50;19.63;;;3.40;1.00;;;;;;4970995;28;20199;-66
2022/03/30 04:33:20;;;;;;;32.33;18.67;;;3.40;1.00;;;;;;4978741;28;20201;-66
2022/03/30 04:35:49;;;;;;;34.00;19.27;;;3.40;1.00;;;;;;4963550;28;20261;-65
2022/03/30 04:38:19;;;;;;;32.67;18.57;;;3.40;1.00;;;;;;4963207;28;20236;-66
2022/03/30 04:40:45;;;;;;;36.13;19.07;;;3.40;1.00;;;;;;4964266;28;20265;-67
2022/03/30 04:43:12;;;;;;;38.37;20.03;;;3.40;1.00;;;;;;4968449;28;20256;-66
2022/03/30 04:45:42;;;;;;;32.30;19.00;;;3.40;1.00;;;;;;4978947;28;20205;-66
2022/03/30 04:48:09;;;;;;;36.03;18.57;;;3.40;1.00;;;;;;4962736;28;20292;-67
2022/03/30 04:50:36;;;;;;;34.33;18.57;;;3.40;1.00;;;;;;4961576;28;20245;-67
2022/03/30 04:53:03;;;;;;;32.47;19.10;;;3.30;1.00;;;;;;4963496;28;20250;-65
2022/03/30 04:55:33;;;;;;;36.33;19.20;;;3.30;1.00;;;;;;4978473;28;20621;-66
2022/03/30 04:58:00;;;;;;;32.03;18.67;;;3.30;1.00;;;;;;4982240;28;20280;-66
2022/03/30 05:00:27;;;;;;;33.07;18.03;;;3.30;1.00;;;;;;4963999;28;20241;-66
2022/03/30 05:02:54;;;;;;;35.17;18.57;;;3.30;1.00;;;;;;4965575;28;20685;-65
2022/03/30 05:05:23;;;;;;;38.30;18.60;;;3.30;1.00;;;;;;4961898;28;20268;-64
2022/03/30 05:07:52;;;;;;;28.27;18.07;;;3.30;1.00;;;;;;4961993;28;20308;-65
2022/03/30 05:10:19;;;;;;;33.87;18.83;;;3.30;1.00;;;;;;4962272;28;20654;-65
2022/03/30 05:12:50;;;;;;;27.73;18.53;;;3.20;1.00;;;;;;4978808;28;20268;-65
2022/03/30 05:15:17;;;;;;;34.70;20.60;;;3.20;1.00;;;;;;4978948;28;20801;-66
2022/03/30 05:17:46;;;;;;;37.90;19.43;;;3.20;1.00;;;;;;4987792;28;20198;-65
2022/03/30 05:20:14;;;;;;;37.70;18.93;;;3.20;1.00;;;;;;4971605;28;20198;-67
2022/03/30 05:22:42;;;;;;;33.47;18.40;;;3.20;1.00;;;;;;4969303;28;20965;-65
2022/03/30 05:25:12;;;;;;;36.30;19.77;;;3.30;1.00;;;;;;4963977;28;20292;-64
2022/03/30 05:27:39;;;;;;;41.10;19.70;;;3.30;1.00;;;;;;4981050;28;20262;-65
2022/03/30 05:30:07;;;;;;;35.10;19.47;;;3.40;1.00;;;;;;4977101;28;20665;-65
2022/03/30 05:32:35;;;;;;;33.03;18.63;;;3.50;1.00;;;;;;4966293;28;20229;-66
2022/03/30 05:35:04;;;;;;;39.80;22.53;;;3.50;99.90;;;;;;4964813;28;20661;-66
2022/03/30 05:37:32;;;;;;;32.03;18.37;;;3.60;99.90;;;;;;4961529;28;20205;-66
2022/03/30 05:39:59;;;;;;;30.73;17.57;;;3.60;99.90;;;;;;4963095;28;21179;-64
2022/03/30 05:42:28;;;;;;;30.70;16.63;;;3.70;99.90;;;;;;4979201;28;20560;-65
2022/03/30 05:44:55;;;;;;;29.73;17.00;;;3.80;99.90;;;;;;4978303;28;20302;-65
2022/03/30 05:47:22;;;;;;;33.87;17.17;;;3.80;99.90;;;;;;4966051;28;20213;-67
2022/03/30 05:49:49;;;;;;;28.30;16.37;;;3.90;99.90;;;;;;4978938;28;20197;-66
2022/03/30 05:52:16;;;;;;;34.73;16.90;;;4.10;91.80;;;;;;4961669;28;20216;-66
2022/03/30 05:54:43;;;;;;;26.10;16.17;;;4.20;1.00;;;;;;4948461;28;20218;-66
2022/03/30 05:57:10;;;;;;;32.20;17.53;;;4.20;1.00;;;;;;4973723;28;20200;-67
2022/03/30 05:59:40;;;;;;;28.27;16.37;;;4.40;1.00;;;;;;4973123;28;20289;-67
2022/03/30 06:02:12;;;;;;;33.20;17.27;;;4.50;1.00;;;;;;4957854;28;20312;-66
2022/03/30 06:04:41;;;;;;;32.80;16.53;;;4.60;1.00;;;;;;4911743;28;21124;-66
2022/03/30 06:07:09;;;;;;;24.57;15.63;;;5.20;1.00;;;;;;4939251;28;20212;-67
2022/03/30 06:09:40;;;;;;;27.57;17.03;;;6.10;99.90;;;;;;4958636;28;20285;-67
2022/03/30 06:12:14;;;;;;;25.90;15.00;;;7.20;99.90;;;;;;4981933;28;20197;-67
2022/03/30 06:14:41;;;;;;;24.50;15.13;;;8.40;1.00;;;;;;4981532;28;20212;-67
2022/03/30 06:17:11;;;;;;;27.93;15.03;;;9.30;1.00;;;;;;4951765;28;20206;-67
2022/03/30 06:19:39;;;;;;;25.70;14.60;;;10.10;99.90;;;;;;4983333;28;21385;-67
2022/03/30 06:22:10;;;;;;;21.57;13.90;;;10.80;59.80;;;;;;4949747;28;20263;-67
2022/03/30 06:24:42;;;;;;;22.07;13.73;;;11.40;1.00;;;;;;4969575;28;20616;-67
2022/03/30 06:27:11;;;;;;;23.77;15.30;;;11.80;1.00;;;;;;4981435;28;20224;-67
2022/03/30 06:29:39;;;;;;;22.97;13.80;;;12.30;1.00;;;;;;4960139;28;20217;-68
2022/03/30 06:32:07;;;;;;;21.03;13.00;;;13.00;1.00;;;;;;4977681;28;20244;-67
2022/03/30 06:34:36;;;;;;;23.67;12.80;;;12.90;1.00;;;;;;4962317;28;20189;-67
2022/03/30 06:37:05;;;;;;;21.27;13.17;;;13.70;1.00;;;;;;4966174;28;20217;-67
2022/03/30 06:39:33;;;;;;;18.23;13.27;;;13.20;1.00;;;;;;4960854;28;20276;-67
2022/03/30 06:42:09;;;;;;;25.07;14.13;;;13.00;1.00;;;;;;4950536;28;20723;-68
2022/03/30 06:44:37;;;;;;;25.27;13.50;;;13.00;1.00;;;;;;4980165;28;20301;-67
2022/03/30 06:47:07;;;;;;;25.23;12.87;;;13.30;1.00;;;;;;4985129;28;20201;-68
2022/03/30 06:49:36;;;;;;;21.43;13.17;;;14.10;1.00;;;;;;4983564;28;20607;-66
2022/03/30 06:52:05;;;;;;;17.40;11.60;;;14.10;1.00;;;;;;4982176;28;20255;-66
2022/03/30 06:54:35;;;;;;;18.43;10.93;;;15.20;1.00;;;;;;4949993;28;20284;-67
2022/03/30 06:57:03;;;;;;;22.63;12.07;;;16.10;99.90;;;;;;4965123;28;20874;-67
2022/03/30 06:59:30;;;;;;;18.20;11.83;;;16.40;99.90;;;;;;4963464;28;20293;-67
2022/03/30 07:02:02;;;;;;;18.73;12.15;;;16.20;99.90;;;;;;4952219;28;20260;-67
2022/03/30 07:04:30;;;;;;;17.00;10.52;;;17.00;99.90;;;;;;4980453;28;20292;-67
2022/03/30 07:12:31;;;;;;;18.17;10.75;;;16.80;99.90;;;;;;4968696;28;20300;-67
2022/03/30 07:14:58;;;;;;;20.85;11.23;;;17.80;99.90;;;;;;4983077;28;20320;-67
2022/03/30 07:17:24;;;;;;;22.45;13.32;;;18.80;99.90;;;;;;4951304;28;20534;-67
2022/03/30 07:19:54;;;;;;;18.65;11.55;;;19.80;99.90;;;;;;4956270;28;20221;-67
2022/03/30 07:22:20;;;;;;;20.48;11.48;;;19.80;99.90;;;;;;4955814;28;20236;-67
2022/03/30 07:24:50;;;;;;;17.20;11.18;;;20.90;99.90;;;;;;4965302;28;20211;-67
2022/03/30 07:27:17;;;;;;;16.77;11.00;;;20.40;99.90;;;;;;4982202;28;20289;-67
2022/03/30 07:29:44;;;;;;;22.15;11.30;;;21.20;99.90;;;;;;4965664;28;21542;-68
2022/03/30 07:32:10;;;;;;;18.90;11.48;;;19.10;99.90;;;;;;4966819;28;20238;-67
2022/03/30 07:34:38;;;;;;;23.55;13.35;;;17.20;99.90;;;;;;4959285;28;20229;-67
2022/03/30 07:37:05;;;;;;;19.67;11.70;;;15.00;99.90;;;;;;4964820;28;20233;-67
2022/03/30 07:39:31;;;;;;;20.42;11.75;;;14.90;99.90;;;;;;4963080;28;20264;-67
2022/03/30 07:41:59;;;;;;;19.05;11.55;;;14.80;99.90;;;;;;4957059;28;20205;-67
2022/03/30 07:44:26;;;;;;;26.37;12.30;;;14.00;99.90;;;;;;4965785;28;20221;-67
2022/03/30 07:46:53;;;;;;;20.47;11.47;;;13.20;1.00;;;;;;4964297;28;20565;-67
2022/03/30 07:49:20;;;;;;;20.70;12.70;;;13.10;1.00;;;;;;4963731;28;20209;-67
2022/03/30 07:51:47;;;;;;;18.33;11.80;;;12.60;1.00;;;;;;4957294;28;20193;-67
2022/03/30 07:54:14;;;;;;;24.20;11.27;;;13.70;1.00;;;;;;4966023;28;20685;-67
2022/03/30 07:56:43;;;;;;;17.33;10.90;;;16.50;99.90;;;;;;4980595;28;20197;-66
2022/03/30 07:59:11;;;;;;;20.92;11.52;;;19.80;99.90;;;;;;4982678;28;20766;-67
2022/03/30 08:01:38;;;;;;;20.13;12.27;;;20.40;99.90;;;;;;4968649;28;21594;-66
2022/03/30 08:04:05;;;;;;;18.17;11.40;;;20.80;99.90;;;;;;4965569;28;20213;-67
2022/03/30 08:06:32;;;;;;;17.25;11.55;;;22.50;99.90;;;;;;4965197;28;20237;-67
2022/03/30 08:08:59;;;;;;;23.08;11.75;;;24.40;99.90;;;;;;4968599;28;20193;-67
2022/03/30 08:11:26;;;;;;;17.15;11.65;;;24.60;99.90;;;;;;4969547;28;20902;-67
2022/03/30 08:13:53;;;;;;;20.13;11.45;;;26.10;99.90;;;;;;4965921;28;20206;-67
2022/03/30 08:16:20;;;;;;;15.57;11.30;;;25.80;99.90;;;;;;4965056;28;20237;-67
2022/03/30 08:18:49;;;;;;;20.27;11.10;;;26.50;99.90;;;;;;4962623;28;20224;-67
2022/03/30 08:24:03;;;;;;;18.98;12.38;;;25.60;99.90;;;;;;4966616;28;20709;-67
2022/03/30 08:26:35;;;;;;;22.15;13.02;;;22.90;99.90;;;;;;4967122;28;20233;-68
2022/03/30 08:29:02;;;;;;;17.60;11.63;;;21.40;99.90;;;;;;4938405;28;20208;-67
2022/03/30 08:31:51;;;;;;;19.55;12.18;;;23.30;99.90;;;;;;4982415;28;20650;-68
2022/03/30 08:34:20;;;;;;;19.35;11.75;;;24.40;99.90;;;;;;4963992;28;20202;-67
2022/03/30 08:36:47;;;;;;;17.73;11.80;;;25.50;99.90;;;;;;4948614;28;20201;-67
2022/03/30 08:39:14;;;;;;;21.23;12.65;;;25.20;99.90;;;;;;4965055;28;20205;-65
2022/03/30 08:41:46;;;;;;;16.90;11.80;;;26.50;99.90;;;;;;4967231;28;20193;-66
2022/03/30 08:44:16;;;;;;;17.63;11.70;;;27.20;99.90;;;;;;4981526;28;20232;-66
2022/03/30 08:46:47;;;;;;;20.33;11.52;;;27.70;99.90;;;;;;4979918;28;20200;-66
2022/03/30 08:49:16;;;;;;;18.65;11.95;;;26.70;99.90;;;;;;4951193;28;20198;-67
2022/03/30 08:51:49;;;;;;;18.35;11.52;;;28.80;99.90;;;;;;4959938;28;20206;-67
2022/03/30 08:54:19;;;;;;;17.98;11.98;;;28.30;99.90;;;;;;4959122;28;20674;-67
2022/03/30 08:56:53;;;;;;;18.80;12.00;;;28.50;99.90;;;;;;4976032;28;20201;-67
2022/03/30 08:59:22;;;;;;;18.60;11.25;;;27.20;99.90;;;;;;4959084;28;20289;-70
2022/03/30 09:01:52;;;;;;;15.88;11.30;;;28.80;99.90;;;;;;4960539;28;20316;-67
2022/03/30 09:04:20;;;;;;;21.58;12.00;;;27.00;99.90;;;;;;4963786;28;20214;-66
2022/03/30 09:06:55;;;;;;;15.52;11.75;;;24.50;99.90;;;;;;4958897;28;20194;-66
2022/03/30 09:09:36;;;;;;;15.98;12.13;;;25.20;99.90;;;;;;4982410;28;20193;-66
2022/03/30 09:12:10;;;;;;;16.95;11.20;;;25.00;99.90;;;;;;4967599;28;20200;-67
2022/03/30 09:14:39;;;;;;;17.67;11.15;;;26.30;99.90;;;;;;4980738;28;20272;-67
2022/03/30 09:17:08;;;;;;;20.85;11.85;;;24.50;99.90;;;;;;4960009;28;20206;-67
2022/03/30 09:19:39;;;;;;;15.95;11.68;;;26.80;99.90;;;;;;4965322;28;20209;-67
2022/03/30 09:22:08;;;;;;;15.48;11.15;;;28.20;99.90;;;;;;4964856;28;20360;-67
2022/03/30 09:24:41;;;;;;;15.43;10.57;;;26.90;99.90;;;;;;4962182;28;20205;-67
2022/03/30 09:27:08;;;;;;;18.10;10.38;;;26.80;99.90;;;;;;4980678;28;20237;-67
2022/03/30 09:29:41;;;;;;;18.10;10.63;;;26.90;99.90;;;;;;4963193;28;20241;-67
2022/03/30 09:32:26;;;;;;;16.40;10.48;;;29.50;99.90;;;;;;4984870;28;20920;-67
2022/03/30 09:34:57;;;;;;;19.20;11.55;;;30.40;99.90;;;;;;4984080;28;20208;-67
2022/03/30 09:37:27;;;;;;;16.83;9.85;;;31.10;99.90;;;;;;4979029;28;20291;-67
2022/03/30 09:39:54;;;;;;;16.58;10.98;;;28.40;99.90;;;;;;4978063;28;20245;-67
2022/03/30 09:42:28;;;;;;;15.45;10.02;;;28.30;99.90;;;;;;4966498;28;20233;-67
2022/03/30 09:44:55;;;;;;;19.23;11.20;;;28.60;99.90;;;;;;4982505;28;20217;-67
2022/03/30 09:47:23;;;;;;;16.45;9.68;;;26.90;99.90;;;;;;4983682;28;20273;-67
2022/03/30 09:49:54;;;;;;;17.67;10.40;;;29.20;99.90;;;;;;4966786;28;20214;-67
2022/03/30 09:52:24;;;;;;;17.13;10.05;;;28.50;99.90;;;;;;4984008;28;20663;-67
2022/03/30 09:54:54;;;;;;;15.23;9.60;;;29.00;99.90;;;;;;4969942;28;20209;-68
2022/03/30 09:57:27;;;;;;;15.30;8.68;;;31.20;99.90;;;;;;4969804;28;20197;-67
2022/03/30 09:59:54;;;;;;;15.07;9.35;;;31.70;99.90;;;;;;4950505;28;20225;-67
2022/03/30 10:02:21;;;;;;;15.07;9.80;;;30.00;99.90;;;;;;4953843;28;20247;-67
2022/03/30 10:04:50;;;;;;;16.10;9.68;;;29.90;99.90;;;;;;4969527;28;20332;-69
2022/03/30 10:07:17;;;;;;;13.48;8.90;;;30.20;99.90;;;;;;4986790;28;20212;-69
2022/03/30 10:09:53;;;;;;;14.38;10.05;;;29.50;99.90;;;;;;4977530;28;20202;-67
2022/03/30 10:12:20;;;;;;;14.90;8.98;;;25.80;99.90;;;;;;4961678;28;20623;-68
2022/03/30 10:14:48;;;;;;;12.65;8.25;;;27.20;99.90;;;;;;4962440;28;20308;-67
2022/03/30 10:17:15;;;;;;;15.55;9.10;;;28.70;99.90;;;;;;4980050;28;20233;-68
2022/03/30 10:19:46;;;;;;;12.73;8.75;;;25.40;99.90;;;;;;4966818;28;20202;-67
2022/03/30 10:22:38;;;;;;;15.25;8.18;;;26.50;99.90;;;;;;4982941;28;20306;-66
2022/03/30 10:25:30;;;;;;;12.50;8.57;;;24.90;99.90;;;;;;4970964;28;20217;-67
2022/03/30 10:28:26;;;;;;;13.32;7.90;;;25.10;99.90;;;;;;4986260;28;20712;-67
2022/03/30 10:30:55;;;;;;;11.73;8.25;;;23.90;99.90;;;;;;4969193;28;20256;-66
2022/03/30 10:33:44;;;;;;;11.98;7.22;;;24.30;99.90;;;;;;4967181;28;20744;-69
2022/03/30 10:36:23;;;;;;;11.90;7.60;;;24.50;99.90;;;;;;4949994;28;20206;-68
2022/03/30 10:39:24;;;;;;;13.95;9.23;;;26.90;99.90;;;;;;4996706;28;20243;-67
2022/03/30 10:42:14;;;;;;;14.75;8.50;;;25.30;99.90;;;;;;4961914;28;20213;-66
2022/03/30 10:44:49;;;;;;;14.32;7.75;;;25.90;99.90;;;;;;4954747;28;20226;-67
2022/03/30 10:47:22;;;;;;;10.57;6.65;;;26.90;99.90;;;;;;4978271;28;20193;-67
2022/03/30 10:50:00;;;;;;;12.95;7.05;;;28.80;99.90;;;;;;4986391;28;20194;-66
2022/03/30 10:52:39;;;;;;;12.27;6.53;;;30.00;99.90;;;;;;4951810;28;20549;-68
2022/03/30 10:55:12;;;;;;;9.75;6.82;;;28.60;99.90;;;;;;4961994;28;20322;-67
2022/03/30 10:57:57;;;;;;;11.57;6.63;;;24.40;99.90;;;;;;4969889;28;20305;-67
2022/03/30 11:00:37;;;;;;;13.05;8.20;;;24.20;99.90;;;;;;4979004;28;20194;-67
2022/03/30 11:03:10;;;;;;;12.40;7.40;;;24.90;99.90;;;;;;4967943;28;20217;-67
2022/03/30 11:05:38;;;;;;;8.82;5.80;;;25.40;99.90;;;;;;4949966;28;20688;-67
2022/03/30 11:08:31;;;;;;;8.63;6.80;;;27.30;99.90;;;;;;4964216;28;20209;-69
2022/03/30 11:11:01;;;;;;;9.80;7.00;;;23.30;99.90;;;;;;4950207;28;20213;-68
2022/03/30 11:13:28;;;;;;;10.93;6.22;;;22.00;99.90;;;;;;4984806;28;20221;-68
2022/03/30 11:15:59;;;;;;;11.88;6.88;;;23.10;99.90;;;;;;4984238;28;20228;-67
2022/03/30 11:18:32;;;;;;;10.50;6.45;;;23.50;99.90;;;;;;4967030;28;20239;-69
2022/03/30 11:21:08;;;;;;;9.60;6.03;;;22.80;99.90;;;;;;4946339;28;20285;-68
2022/03/30 11:23:36;;;;;;;10.70;7.18;;;23.60;99.90;;;;;;4965187;28;20282;-70
2022/03/30 11:26:03;;;;;;;7.72;6.22;;;24.40;99.90;;;;;;4964187;28;20217;-67
2022/03/30 11:28:40;;;;;;;10.68;6.25;;;25.10;99.90;;;;;;4965033;28;20202;-68
2022/03/30 11:31:20;;;;;;;12.20;5.93;;;25.20;99.90;;;;;;4969081;28;20591;-67
2022/03/30 11:34:26;;;;;;;8.93;5.82;;;25.10;99.90;;;;;;4981380;28;20200;-69
2022/03/30 11:36:54;;;;;;;9.02;5.90;;;24.90;99.90;;;;;;4964651;28;20564;-69
2022/03/30 11:39:32;;;;;;;9.00;6.43;;;23.50;99.90;;;;;;4983595;28;20319;-67
2022/03/30 11:42:02;;;;;;;9.32;5.93;;;22.90;99.90;;;;;;4980873;28;20468;-67
2022/03/30 11:47:19;;;;;;;9.98;6.63;;;23.80;99.90;;;;;;4973582;28;20260;-66
2022/03/30 11:49:59;;;;;;;12.75;7.97;;;21.70;99.90;;;;;;4963917;28;20331;-67
2022/03/30 11:52:27;;;;;;;13.95;6.60;;;22.40;99.90;;;;;;4991825;28;20197;-68
2022/03/30 11:55:01;;;;;;;10.23;5.72;;;23.70;99.90;;;;;;4980214;28;20194;-67
2022/03/30 11:57:28;;;;;;;9.27;5.93;;;25.00;99.90;;;;;;4966186;28;20218;-69
2022/03/30 12:00:02;;;;;;;10.52;6.85;;;25.00;99.90;;;;;;4981470;28;20313;-67
2022/03/30 12:02:41;;;;;;;7.47;5.85;;;21.70;99.90;;;;;;4969321;28;20193;-68
2022/03/30 12:05:09;;;;;;;9.02;6.15;;;20.10;99.90;;;;;;4952097;28;20371;-66
2022/03/30 12:07:38;;;;;;;13.35;6.45;;;20.50;99.90;;;;;;4964785;28;20558;-66
2022/03/30 12:10:13;;;;;;;8.80;6.13;;;22.30;99.90;;;;;;4968660;28;20194;-68
2022/03/30 12:12:41;;;;;;;13.20;6.38;;;22.70;99.90;;;;;;4968395;28;20285;-66
2022/03/30 12:15:17;;;;;;;9.20;6.13;;;24.30;99.90;;;;;;4976781;28;20198;-67
2022/03/30 12:17:51;;;;;;;8.07;5.47;;;24.60;99.90;;;;;;4963089;28;20722;-68
2022/03/30 12:20:36;;;;;;;11.93;6.22;;;25.20;99.90;;;;;;4958237;28;20487;-67
2022/03/30 12:23:10;;;;;;;11.43;5.88;;;25.20;99.90;;;;;;4980033;28;20221;-67
2022/03/30 12:25:40;;;;;;;11.65;6.88;;;24.70;99.90;;;;;;4948034;28;20217;-67
2022/03/30 12:28:07;;;;;;;12.63;8.40;;;21.20;99.90;;;;;;4948096;28;20194;-66
2022/03/30 12:30:37;;;;;;;11.82;7.82;;;18.50;99.90;;;;;;4966639;28;20656;-66
2022/03/30 12:33:05;;;;;;;15.60;9.40;;;17.40;99.90;;;;;;4981353;28;20185;-66
2022/03/30 12:35:35;;;;;;;11.20;7.00;;;18.60;99.90;;;;;;4980935;28;20198;-67
2022/03/30 12:38:15;;;;;;;10.68;6.35;;;19.90;99.90;;;;;;4984362;28;20193;-67
2022/03/30 12:40:43;;;;;;;9.23;6.32;;;21.50;99.90;;;;;;4964480;28;20241;-68
2022/03/30 12:43:10;;;;;;;9.05;5.85;;;22.70;99.90;;;;;;4964946;28;20285;-66
2022/03/30 12:45:54;;;;;;;11.00;6.28;;;22.70;99.90;;;;;;4947571;28;20222;-67
2022/03/30 12:48:30;;;;;;;7.68;5.53;;;21.80;99.90;;;;;;4957377;28;20191;-66
2022/03/30 12:50:59;;;;;;;10.20;5.97;;;21.70;99.90;;;;;;4975248;28;20206;-67
2022/03/30 12:53:35;;;;;;;7.75;5.90;;;19.50;99.90;;;;;;4962080;28;20282;-69
2022/03/30 12:56:20;;;;;;;10.95;6.13;;;18.30;99.90;;;;;;4945005;28;20272;-67
2022/03/30 12:59:04;;;;;;;10.20;6.03;;;18.10;99.90;;;;;;4961331;28;20574;-67
2022/03/30 13:01:37;;;;;;;11.27;6.10;;;17.40;99.90;;;;;;4948547;28;21002;-67
2022/03/30 13:04:25;;;;;;;10.90;6.10;;;17.00;99.90;;;;;;4962448;28;20241;-67
2022/03/30 13:07:13;;;;;;;13.10;6.47;;;16.60;99.90;;;;;;4961643;28;20198;-68